Time;durP1;ratioP1;P1;durP2;ratioP2;P2;SDS_P1;SDS_P2;PMS_P1;PMS_P2;Temp;Humidity;BMP_temperature;BMP_pressure;BME280_temperature;BME280_humidity;BME280_pressure;Samples;Min_cycle;Max_cycle;Signal;HPM_P1;HPM_P2
2023/06/16 00:00:32;;;;;;;7.40;6.65;;;;;;;;;;5071860;28;20044;-62
2023/06/16 00:02:59;;;;;;;6.38;5.78;;;;;;;;;;5071798;28;20055;-62
2023/06/16 00:05:27;;;;;;;7.93;6.88;;;;;;;;;;5071537;28;20041;-62
2023/06/16 00:07:54;;;;;;;7.15;6.45;;;;;;;;;;5071695;28;20480;-62
2023/06/16 00:10:20;;;;;;;10.17;6.77;;;;;;;;;;5071664;28;20542;-62
2023/06/16 00:12:47;;;;;;;8.93;6.97;;;;;;;;;;5071882;28;20534;-62
2023/06/16 00:15:13;;;;;;;7.78;6.85;;;;;;;;;;5071082;28;20108;-62
2023/06/16 00:17:46;;;;;;;7.90;7.10;;;;;;;;;;5071522;28;20070;-62
2023/06/16 00:20:14;;;;;;;10.50;7.28;;;;;;;;;;5071465;28;20056;-62
2023/06/16 00:22:41;;;;;;;8.38;7.50;;;;;;;;;;5071677;28;20051;-62
2023/06/16 00:25:11;;;;;;;10.13;6.65;;;;;;;;;;5071779;28;20053;-62
2023/06/16 00:27:37;;;;;;;8.32;7.45;;;;;;;;;;5071398;28;20041;-62
2023/06/16 00:30:04;;;;;;;8.05;6.70;;;;;;;;;;5071414;28;20047;-62
2023/06/16 00:32:31;;;;;;;7.97;6.88;;;;;;;;;;5071249;28;20049;-63
2023/06/16 00:34:57;;;;;;;6.70;6.10;;;;;;;;;;5071680;28;20124;-62
2023/06/16 00:37:23;;;;;;;8.88;6.72;;;;;;;;;;5074330;28;20052;-62
2023/06/16 00:39:50;;;;;;;8.30;7.07;;;;;;;;;;5075603;28;20052;-62
2023/06/16 00:42:16;;;;;;;8.00;7.18;;;;;;;;;;5075346;28;20056;-62
2023/06/16 00:44:43;;;;;;;7.90;7.20;;;;;;;;;;5075200;28;20090;-62
2023/06/16 00:47:09;;;;;;;7.07;6.47;;;;;;;;;;5075825;28;20102;-62
2023/06/16 00:49:36;;;;;;;7.43;6.73;;;;;;;;;;5075362;28;20059;-62
2023/06/16 00:52:04;;;;;;;7.70;6.93;;;;;;;;;;5075285;28;20044;-62
2023/06/16 00:54:32;;;;;;;;;;;;;;;;;;5076073;28;20282;-62
2023/06/16 00:56:58;;;;;;;7.85;7.07;;;;;;;;;;5075010;28;19928;-61
2023/06/16 00:59:26;;;;;;;8.07;6.60;;;;;;;;;;5075013;28;20060;-62
2023/06/16 01:01:54;;;;;;;;;;;;;;;;;;5075240;28;20305;-62
2023/06/16 01:04:25;;;;;;;7.18;6.53;;;;;;;;;;5057379;28;20387;-62
2023/06/16 01:07:04;;;;;;;7.75;6.78;;;;;;;;;;5074711;28;20048;-62
2023/06/16 01:09:45;;;;;;;7.60;6.85;;;;;;;;;;5075155;28;20056;-62
2023/06/16 01:12:32;;;;;;;7.53;6.72;;;;;;;;;;5074840;28;20052;-62
2023/06/16 01:14:59;;;;;;;8.00;7.18;;;;;;;;;;5074765;28;20051;-62
2023/06/16 01:17:28;;;;;;;7.63;6.97;;;;;;;;;;5074625;28;20488;-62
2023/06/16 01:20:09;;;;;;;7.78;7.07;;;;;;;;;;5074740;28;20086;-62
2023/06/16 01:22:35;;;;;;;7.40;6.70;;;;;;;;;;5074488;28;20059;-62
2023/06/16 01:25:03;;;;;;;8.52;7.47;;;;;;;;;;5074862;28;20110;-62
2023/06/16 01:27:30;;;;;;;7.20;6.57;;;;;;;;;;5074580;28;20048;-62
2023/06/16 01:29:58;;;;;;;7.38;6.45;;;;;;;;;;5074463;28;20430;-62
2023/06/16 01:32:26;;;;;;;8.15;7.22;;;;;;;;;;5074320;28;20549;-62
2023/06/16 01:34:53;;;;;;;8.27;6.97;;;;;;;;;;5074299;28;20052;-62
2023/06/16 01:37:20;;;;;;;7.57;6.78;;;;;;;;;;5074589;28;20052;-62
2023/06/16 01:39:47;;;;;;;8.63;6.93;;;;;;;;;;5074537;28;20415;-62
2023/06/16 01:42:15;;;;;;;6.85;6.22;;;;;;;;;;5074313;28;20297;-61
2023/06/16 01:44:42;;;;;;;7.65;6.30;;;;;;;;;;5074043;28;20044;-62
2023/06/16 01:47:09;;;;;;;6.93;6.32;;;;;;;;;;5073942;28;20538;-62
2023/06/16 01:49:36;;;;;;;6.32;5.75;;;;;;;;;;5074343;28;20055;-62
2023/06/16 01:52:02;;;;;;;6.55;5.95;;;;;;;;;;5074223;28;20134;-62
2023/06/16 01:54:29;;;;;;;7.60;6.78;;;;;;;;;;5074276;28;20063;-62
2023/06/16 01:56:55;;;;;;;7.53;6.80;;;;;;;;;;5074188;28;20419;-62
2023/06/16 01:59:22;;;;;;;6.53;5.93;;;;;;;;;;5073984;28;20048;-62
2023/06/16 02:01:50;;;;;;;7.40;6.70;;;;;;;;;;5074007;28;20056;-62
2023/06/16 02:04:19;;;;;;;6.75;6.15;;;;;;;;;;5074008;28;20103;-62
2023/06/16 02:06:48;;;;;;;8.00;6.95;;;;;;;;;;5073800;28;20048;-62
2023/06/16 02:09:16;;;;;;;6.57;6.03;;;;;;;;;;5073670;28;20055;-62
2023/06/16 02:11:43;;;;;;;6.85;6.18;;;;;;;;;;5073717;28;20522;-62
2023/06/16 02:14:10;;;;;;;7.85;6.15;;;;;;;;;;5073855;28;20048;-62
2023/06/16 02:16:42;;;;;;;6.63;5.90;;;;;;;;;;5073872;28;20055;-62
2023/06/16 02:19:09;;;;;;;7.13;6.13;;;;;;;;;;5073432;28;20512;-62
2023/06/16 02:21:36;;;;;;;7.10;6.43;;;;;;;;;;5073433;28;20488;-61
2023/06/16 02:24:04;;;;;;;7.40;6.03;;;;;;;;;;5073685;28;20055;-62
2023/06/16 02:26:32;;;;;;;6.38;5.72;;;;;;;;;;5073632;28;20048;-62
2023/06/16 02:28:58;;;;;;;6.50;6.00;;;;;;;;;;5073243;28;20048;-62
2023/06/16 02:31:25;;;;;;;6.90;6.22;;;;;;;;;;5073535;28;20060;-62
2023/06/16 02:33:53;;;;;;;8.45;6.28;;;;;;;;;;5073440;28;20066;-62
2023/06/16 02:36:19;;;;;;;6.55;5.95;;;;;;;;;;5073268;28;20059;-62
2023/06/16 02:38:45;;;;;;;6.85;6.13;;;;;;;;;;5073634;28;20427;-62
2023/06/16 02:41:12;;;;;;;8.27;6.60;;;;;;;;;;5072974;28;20056;-62
2023/06/16 02:43:39;;;;;;;7.07;6.38;;;;;;;;;;5073236;28;20041;-62
2023/06/16 02:46:05;;;;;;;6.75;6.15;;;;;;;;;;5072919;28;20052;-62
2023/06/16 02:48:32;;;;;;;10.60;6.13;;;;;;;;;;5073036;28;20105;-62
2023/06/16 02:50:58;;;;;;;7.45;6.53;;;;;;;;;;5073483;28;20056;-62
2023/06/16 02:53:25;;;;;;;7.45;6.32;;;;;;;;;;5072933;28;20048;-62
2023/06/16 02:55:51;;;;;;;6.82;6.25;;;;;;;;;;5073201;28;20044;-62
2023/06/16 02:58:18;;;;;;;6.90;6.30;;;;;;;;;;5072554;28;20515;-62
2023/06/16 03:00:45;;;;;;;7.97;7.25;;;;;;;;;;5072495;28;20052;-62
2023/06/16 03:03:11;;;;;;;7.50;6.60;;;;;;;;;;5072832;28;20041;-61
2023/06/16 03:05:38;;;;;;;8.47;7.10;;;;;;;;;;5072841;28;20098;-62
2023/06/16 03:08:04;;;;;;;7.93;7.13;;;;;;;;;;5072581;28;20053;-62
2023/06/16 03:10:31;;;;;;;7.10;6.50;;;;;;;;;;5072685;28;20063;-62
2023/06/16 03:12:57;;;;;;;8.13;7.20;;;;;;;;;;5072683;28;20048;-62
2023/06/16 03:15:25;;;;;;;7.82;6.95;;;;;;;;;;5072534;28;20059;-62
2023/06/16 03:17:51;;;;;;;;;;;;;;;;;;5072855;28;20076;-62
2023/06/16 03:20:18;;;;;;;9.65;8.52;;;;;;;;;;5072510;28;19966;-62
2023/06/16 03:22:45;;;;;;;11.00;8.63;;;;;;;;;;5065621;28;20048;-62
2023/06/16 03:25:12;;;;;;;12.48;8.82;;;;;;;;;;5072191;28;20045;-62
2023/06/16 03:27:40;;;;;;;10.73;8.85;;;;;;;;;;5072349;28;20049;-62
2023/06/16 03:30:07;;;;;;;9.00;7.93;;;;;;;;;;5072286;28;20054;-62
2023/06/16 03:32:35;;;;;;;8.98;8.02;;;;;;;;;;5072130;28;20055;-62
2023/06/16 03:35:02;;;;;;;8.68;7.05;;;;;;;;;;5072324;28;20099;-62
2023/06/16 03:37:28;;;;;;;8.45;7.53;;;;;;;;;;5072182;28;20419;-62
2023/06/16 03:39:55;;;;;;;7.95;7.03;;;;;;;;;;5071841;28;20045;-62
2023/06/16 03:42:22;;;;;;;9.65;7.50;;;;;;;;;;5072141;28;20044;-62
2023/06/16 03:44:49;;;;;;;12.40;7.60;;;;;;;;;;5072120;28;20157;-62
2023/06/16 03:47:16;;;;;;;10.10;7.95;;;;;;;;;;5071825;28;20385;-62
2023/06/16 03:49:42;;;;;;;9.13;7.68;;;;;;;;;;5071934;28;20052;-61
2023/06/16 03:52:09;;;;;;;8.90;7.30;;;;;;;;;;5071789;28;20102;-62
2023/06/16 03:54:36;;;;;;;9.27;7.70;;;;;;;;;;5071678;28;20052;-62
2023/06/16 03:57:03;;;;;;;;;;;;;;;;;;5072037;28;20054;-62
2023/06/16 03:59:29;;;;;;;7.85;7.03;;;;;;;;;;5071724;28;19985;-62
2023/06/16 04:01:57;;;;;;;8.98;8.07;;;;;;;;;;5071615;28;20438;-62
2023/06/16 04:04:27;;;;;;;8.93;7.68;;;;;;;;;;5071946;28;20044;-62
2023/06/16 04:06:53;;;;;;;8.85;7.82;;;;;;;;;;5071424;28;20049;-62
2023/06/16 04:09:20;;;;;;;9.95;7.10;;;;;;;;;;5071813;28;20051;-61
2023/06/16 04:11:46;;;;;;;8.40;7.60;;;;;;;;;;5070915;28;20044;-62
2023/06/16 04:14:12;;;;;;;7.18;6.47;;;;;;;;;;5071671;28;20056;-62
2023/06/16 04:16:42;;;;;;;8.32;7.28;;;;;;;;;;5069616;28;20053;-62
2023/06/16 04:19:12;;;;;;;10.40;8.70;;;;;;;;;;5072103;28;20114;-61
2023/06/16 04:21:40;;;;;;;9.15;8.18;;;;;;;;;;5071468;28;20048;-62
2023/06/16 04:24:07;;;;;;;10.63;8.65;;;;;;;;;;5071454;28;20680;-62
2023/06/16 04:26:34;;;;;;;9.95;8.27;;;;;;;;;;5071429;28;20044;-62
2023/06/16 04:29:03;;;;;;;11.43;7.85;;;;;;;;;;5071387;28;20040;-62
2023/06/16 04:31:32;;;;;;;7.75;6.95;;;;;;;;;;5071400;28;20431;-62
2023/06/16 04:33:58;;;;;;;8.77;7.28;;;;;;;;;;5071262;28;20055;-62
2023/06/16 04:36:25;;;;;;;9.98;7.55;;;;;;;;;;5071625;28;20044;-62
2023/06/16 04:38:54;;;;;;;8.73;7.28;;;;;;;;;;5071281;28;20126;-62
2023/06/16 04:41:21;;;;;;;11.07;8.85;;;;;;;;;;5071338;28;20492;-61
2023/06/16 04:43:47;;;;;;;13.75;8.75;;;;;;;;;;5071388;28;20127;-62
2023/06/16 04:46:13;;;;;;;9.85;7.80;;;;;;;;;;5070998;28;20056;-62
2023/06/16 04:48:40;;;;;;;8.52;7.68;;;;;;;;;;5071407;28;20074;-62
2023/06/16 04:51:07;;;;;;;7.90;7.00;;;;;;;;;;5071342;28;20081;-62
2023/06/16 04:53:34;;;;;;;8.35;7.55;;;;;;;;;;5071482;28;20053;-62
2023/06/16 04:56:00;;;;;;;9.45;7.75;;;;;;;;;;5071180;28;20064;-61
2023/06/16 04:58:27;;;;;;;8.15;7.35;;;;;;;;;;5071067;28;20049;-62
2023/06/16 05:00:53;;;;;;;8.60;7.80;;;;;;;;;;5071354;28;20389;-62
2023/06/16 05:03:20;;;;;;;8.40;7.40;;;;;;;;;;5071244;28;20724;-62
2023/06/16 05:05:46;;;;;;;8.65;7.03;;;;;;;;;;5071058;28;20106;-62
2023/06/16 05:08:13;;;;;;;10.35;6.82;;;;;;;;;;5070878;28;20045;-62
2023/06/16 05:10:40;;;;;;;8.02;7.20;;;;;;;;;;5070881;28;20042;-62
2023/06/16 05:13:07;;;;;;;;;;;;;;;;;;5071716;28;20052;-62
2023/06/16 05:15:33;;;;;;;10.25;7.25;;;;;;;;;;5071173;28;19928;-61
2023/06/16 05:18:00;;;;;;;8.15;7.45;;;;;;;;;;5071189;28;20059;-62
2023/06/16 05:20:26;;;;;;;7.82;7.20;;;;;;;;;;5071098;28;20053;-62
2023/06/16 05:22:53;;;;;;;8.68;7.70;;;;;;;;;;5072448;28;20097;-62
2023/06/16 05:25:19;;;;;;;12.68;8.07;;;;;;;;;;5074777;28;20064;-61
2023/06/16 05:27:46;;;;;;;10.30;8.23;;;;;;;;;;5074761;28;20048;-62
2023/06/16 05:30:13;;;;;;;9.48;8.13;;;;;;;;;;5074467;28;20044;-61
2023/06/16 05:32:39;;;;;;;9.30;8.25;;;;;;;;;;5074299;28;20048;-61
2023/06/16 05:35:07;;;;;;;10.15;7.75;;;;;;;;;;5074598;28;20130;-62
2023/06/16 05:37:33;;;;;;;7.85;7.15;;;;;;;;;;5074428;28;20132;-62
2023/06/16 05:40:00;;;;;;;9.52;7.95;;;;;;;;;;5055969;28;20411;-61
2023/06/16 05:42:26;;;;;;;9.82;8.35;;;;;;;;;;5073870;28;20045;-62
2023/06/16 05:44:53;;;;;;;8.77;7.93;;;;;;;;;;5073339;28;20423;-62
2023/06/16 05:47:19;;;;;;;8.95;7.85;;;;;;;;;;5072810;28;20076;-61
2023/06/16 05:49:46;;;;;;;10.18;8.20;;;;;;;;;;5073700;28;20044;-61
2023/06/16 05:52:12;;;;;;;9.82;7.50;;;;;;;;;;5073417;28;20057;-61
2023/06/16 05:54:40;;;;;;;9.93;7.77;;;;;;;;;;5073347;28;20067;-61
2023/06/16 05:57:06;;;;;;;8.73;7.72;;;;;;;;;;5067117;28;20071;-61
2023/06/16 05:59:34;;;;;;;10.48;8.35;;;;;;;;;;5054158;28;20108;-62
2023/06/16 06:02:01;;;;;;;11.07;8.48;;;;;;;;;;5063041;28;20064;-61
2023/06/16 06:04:31;;;;;;;9.27;8.05;;;;;;;;;;5053964;28;20060;-61
2023/06/16 06:06:58;;;;;;;9.27;8.38;;;;;;;;;;5053559;28;20041;-61
2023/06/16 06:09:24;;;;;;;8.00;7.20;;;;;;;;;;5064905;28;20048;-61
2023/06/16 06:11:51;;;;;;;10.85;8.00;;;;;;;;;;5073975;28;20404;-61
2023/06/16 06:14:18;;;;;;;9.13;7.55;;;;;;;;;;5071210;28;20056;-61
2023/06/16 06:16:44;;;;;;;7.65;6.90;;;;;;;;;;5061843;28;20618;-61
2023/06/16 06:19:11;;;;;;;9.83;7.60;;;;;;;;;;5072933;28;20435;-61
2023/06/16 06:21:38;;;;;;;9.23;6.78;;;;;;;;;;5052715;28;20286;-61
2023/06/16 06:24:05;;;;;;;7.78;7.03;;;;;;;;;;5053173;28;20362;-61
2023/06/16 06:26:32;;;;;;;8.48;7.50;;;;;;;;;;5053157;28;20049;-62
2023/06/16 06:28:58;;;;;;;7.70;7.00;;;;;;;;;;5052965;28;20092;-61
2023/06/16 06:31:25;;;;;;;8.95;7.38;;;;;;;;;;5055152;28;20052;-61
2023/06/16 06:33:51;;;;;;;11.70;8.02;;;;;;;;;;5052192;28;20091;-61
2023/06/16 06:36:22;;;;;;;8.10;7.10;;;;;;;;;;5052704;28;20066;-60
2023/06/16 06:38:48;;;;;;;10.15;7.40;;;;;;;;;;5052762;28;20060;-61
2023/06/16 06:41:16;;;;;;;7.93;6.70;;;;;;;;;;5054043;28;20489;-61
2023/06/16 06:43:43;;;;;;;7.88;7.05;;;;;;;;;;5055971;28;20044;-61
2023/06/16 06:46:09;;;;;;;10.83;8.03;;;;;;;;;;5073298;28;20108;-61
2023/06/16 06:48:36;;;;;;;7.75;6.95;;;;;;;;;;5073021;28;20056;-61
2023/06/16 06:51:02;;;;;;;9.43;8.38;;;;;;;;;;5065424;28;20079;-62
2023/06/16 06:53:29;;;;;;;9.17;8.30;;;;;;;;;;5066532;28;20055;-62
2023/06/16 06:55:56;;;;;;;9.88;8.23;;;;;;;;;;5054260;28;20469;-61
2023/06/16 06:58:22;;;;;;;9.57;8.35;;;;;;;;;;5073266;28;20056;-62
2023/06/16 07:00:49;;;;;;;8.43;7.45;;;;;;;;;;5073077;28;20067;-61
2023/06/16 07:03:15;;;;;;;8.75;7.85;;;;;;;;;;5056940;28;20407;-61
2023/06/16 07:05:42;;;;;;;8.40;7.53;;;;;;;;;;5070693;28;20048;-62
2023/06/16 07:08:08;;;;;;;9.13;8.23;;;;;;;;;;5070567;28;20048;-62
2023/06/16 07:10:36;;;;;;;10.38;7.90;;;;;;;;;;5070798;28;20369;-62
2023/06/16 07:13:02;;;;;;;7.40;6.75;;;;;;;;;;5070487;28;20048;-61
2023/06/16 07:15:29;;;;;;;8.23;7.33;;;;;;;;;;5071228;28;20048;-62
2023/06/16 07:17:55;;;;;;;9.93;7.50;;;;;;;;;;5071928;28;20048;-62
2023/06/16 07:20:22;;;;;;;8.27;7.57;;;;;;;;;;5072532;28;20447;-62
2023/06/16 07:22:48;;;;;;;7.97;6.90;;;;;;;;;;5072195;28;20450;-62
2023/06/16 07:25:15;;;;;;;7.60;6.80;;;;;;;;;;5072151;28;20101;-62
2023/06/16 07:27:43;;;;;;;7.68;6.55;;;;;;;;;;5072198;28;20132;-61
2023/06/16 07:30:09;;;;;;;7.32;6.65;;;;;;;;;;5072230;28;20056;-61
2023/06/16 07:32:36;;;;;;;6.55;5.93;;;;;;;;;;5072383;28;20044;-62
2023/06/16 07:35:03;;;;;;;6.55;6.05;;;;;;;;;;5072101;28;20049;-61
2023/06/16 07:37:30;;;;;;;7.20;6.45;;;;;;;;;;5071938;28;20048;-62
2023/06/16 07:39:56;;;;;;;6.97;6.28;;;;;;;;;;5072346;28;20051;-62
2023/06/16 07:42:23;;;;;;;6.77;6.13;;;;;;;;;;5071806;28;20048;-62
2023/06/16 07:44:49;;;;;;;8.17;6.63;;;;;;;;;;5072292;28;20283;-61
2023/06/16 07:47:16;;;;;;;7.65;6.78;;;;;;;;;;5071789;28;20053;-62
2023/06/16 07:49:42;;;;;;;8.70;6.13;;;;;;;;;;5072187;28;20090;-62
2023/06/16 07:52:11;;;;;;;6.63;5.97;;;;;;;;;;5072236;28;20087;-62
2023/06/16 07:54:43;;;;;;;6.50;5.90;;;;;;;;;;5072001;28;20307;-62
2023/06/16 07:57:09;;;;;;;6.82;6.20;;;;;;;;;;5072022;28;20048;-62
2023/06/16 07:59:35;;;;;;;5.97;5.38;;;;;;;;;;5071910;28;20040;-62
2023/06/16 08:02:03;;;;;;;6.15;5.65;;;;;;;;;;5071804;28;20040;-62
2023/06/16 08:04:29;;;;;;;;;;;;;;;;;;5072116;28;20385;-62
2023/06/16 08:06:57;;;;;;;5.43;4.93;;;;;;;;;;5071629;28;19967;-62
2023/06/16 08:09:23;;;;;;;6.32;5.03;;;;;;;;;;5071513;28;20049;-61
2023/06/16 08:11:50;;;;;;;6.07;5.25;;;;;;;;;;5071971;28;20439;-62
2023/06/16 08:14:16;;;;;;;6.75;5.28;;;;;;;;;;5071695;28;20049;-62
2023/06/16 08:16:43;;;;;;;6.22;5.50;;;;;;;;;;5071584;28;20090;-61
2023/06/16 08:19:09;;;;;;;4.85;4.32;;;;;;;;;;5071504;28;20056;-61
2023/06/16 08:21:37;;;;;;;5.00;4.40;;;;;;;;;;5071611;28;20137;-62
2023/06/16 08:24:05;;;;;;;6.97;4.80;;;;;;;;;;5071633;28;20044;-62
2023/06/16 08:26:31;;;;;;;6.28;4.40;;;;;;;;;;5071338;28;20087;-61
2023/06/16 08:28:58;;;;;;;6.60;5.13;;;;;;;;;;5071759;28;20048;-62
2023/06/16 08:31:25;;;;;;;6.72;5.03;;;;;;;;;;5071355;28;20040;-62
2023/06/16 08:33:51;;;;;;;;;;;;;;;;;;5071959;28;20052;-62
2023/06/16 08:36:20;;;;;;;4.70;4.05;;;;;;;;;;5071343;28;19978;-62
2023/06/16 08:38:46;;;;;;;5.63;4.40;;;;;;;;;;5071417;28;20049;-62
2023/06/16 08:41:15;;;;;;;4.00;3.65;;;;;;;;;;5071606;28;20121;-62
2023/06/16 08:43:43;;;;;;;4.35;4.00;;;;;;;;;;5071282;28;20113;-62
2023/06/16 08:46:10;;;;;;;5.22;4.43;;;;;;;;;;5071207;28;20123;-62
2023/06/16 08:48:37;;;;;;;5.70;4.13;;;;;;;;;;5071277;28;20045;-62
2023/06/16 08:51:04;;;;;;;6.45;3.95;;;;;;;;;;5071560;28;20400;-62
2023/06/16 08:53:33;;;;;;;5.00;4.30;;;;;;;;;;5071205;28;20053;-62
2023/06/16 08:56:00;;;;;;;6.32;4.40;;;;;;;;;;5071180;28;20057;-62
2023/06/16 08:58:27;;;;;;;4.07;3.67;;;;;;;;;;5073867;28;20056;-62
2023/06/16 09:00:54;;;;;;;4.53;3.90;;;;;;;;;;5074963;28;20048;-62
2023/06/16 09:03:21;;;;;;;4.78;4.35;;;;;;;;;;5074988;28;20056;-62
2023/06/16 09:05:48;;;;;;;6.53;3.88;;;;;;;;;;5075101;28;20076;-62
2023/06/16 09:08:15;;;;;;;4.68;4.30;;;;;;;;;;5074876;28;20052;-62
2023/06/16 09:10:42;;;;;;;5.03;4.53;;;;;;;;;;5074927;28;20111;-62
2023/06/16 09:13:09;;;;;;;5.53;4.22;;;;;;;;;;5074734;28;20495;-62
2023/06/16 09:15:35;;;;;;;5.45;3.90;;;;;;;;;;5075062;28;20136;-62
2023/06/16 09:18:06;;;;;;;5.32;3.67;;;;;;;;;;5074989;28;20053;-62
2023/06/16 09:20:37;;;;;;;5.93;3.85;;;;;;;;;;5074805;28;20060;-62
2023/06/16 09:23:05;;;;;;;6.32;3.97;;;;;;;;;;5074393;28;20511;-62
2023/06/16 09:25:34;;;;;;;8.55;4.20;;;;;;;;;;5074782;28;20044;-62
2023/06/16 09:28:09;;;;;;;5.25;3.42;;;;;;;;;;5075107;28;20060;-62
2023/06/16 09:30:35;;;;;;;6.35;4.15;;;;;;;;;;5074850;28;20074;-62
2023/06/16 09:33:02;;;;;;;7.43;3.50;;;;;;;;;;5074641;28;20048;-62
2023/06/16 09:35:28;;;;;;;;;;;;;;;;;;5074838;28;20135;-62
2023/06/16 09:37:56;;;;;;;5.35;3.45;;;;;;;;;;5074343;28;20318;-62
2023/06/16 09:40:41;;;;;;;4.55;3.28;;;;;;;;;;5074510;28;20139;-62
2023/06/16 09:43:09;;;;;;;7.57;3.65;;;;;;;;;;5074697;28;20526;-62
2023/06/16 09:45:36;;;;;;;4.93;3.50;;;;;;;;;;5074097;28;20048;-62
2023/06/16 09:48:02;;;;;;;;;;;;;;;;;;5074687;28;20051;-62
2023/06/16 09:50:30;;;;;;;6.22;3.53;;;;;;;;;;5061341;28;19932;-62
2023/06/16 09:52:57;;;;;;;3.42;2.70;;;;;;;;;;5073240;28;20046;-62
2023/06/16 09:55:27;;;;;;;3.70;3.35;;;;;;;;;;5074219;28;20091;-62
2023/06/16 09:57:54;;;;;;;4.85;3.30;;;;;;;;;;5074155;28;20076;-63
2023/06/16 10:00:21;;;;;;;6.30;3.15;;;;;;;;;;5074092;28;20063;-62
2023/06/16 10:02:52;;;;;;;3.70;2.85;;;;;;;;;;5074065;28;20056;-63
2023/06/16 10:05:21;;;;;;;4.80;2.83;;;;;;;;;;5074133;28;20049;-62
2023/06/16 10:07:51;;;;;;;3.65;2.90;;;;;;;;;;5074001;28;20044;-62
2023/06/16 10:10:25;;;;;;;3.45;3.00;;;;;;;;;;5072681;28;20067;-63
2023/06/16 10:12:54;;;;;;;4.50;2.95;;;;;;;;;;5073928;28;20056;-62
2023/06/16 10:15:20;;;;;;;5.20;2.85;;;;;;;;;;5073954;28;20127;-62
2023/06/16 10:17:48;;;;;;;5.65;2.88;;;;;;;;;;5073575;28;20076;-62
2023/06/16 10:20:16;;;;;;;6.10;2.83;;;;;;;;;;5073484;28;20076;-62
2023/06/16 10:22:43;;;;;;;3.63;2.70;;;;;;;;;;5073636;28;20050;-62
2023/06/16 10:25:10;;;;;;;4.25;2.65;;;;;;;;;;5073403;28;20492;-62
2023/06/16 10:27:37;;;;;;;4.35;2.83;;;;;;;;;;5073717;28;20059;-63
2023/06/16 10:30:04;;;;;;;3.97;2.70;;;;;;;;;;5073620;28;20049;-63
2023/06/16 10:32:30;;;;;;;3.08;2.75;;;;;;;;;;5073188;28;20044;-62
2023/06/16 10:34:57;;;;;;;2.75;2.55;;;;;;;;;;5073250;28;20044;-62
2023/06/16 10:37:25;;;;;;;7.05;2.72;;;;;;;;;;5073395;28;20102;-63
2023/06/16 10:39:56;;;;;;;5.22;2.60;;;;;;;;;;5073729;28;20098;-63
2023/06/16 10:42:23;;;;;;;4.38;2.45;;;;;;;;;;5073304;28;20057;-62
2023/06/16 10:44:50;;;;;;;3.45;2.28;;;;;;;;;;5073013;28;20040;-63
2023/06/16 10:47:16;;;;;;;3.45;2.38;;;;;;;;;;5072789;28;20109;-63
2023/06/16 10:49:50;;;;;;;4.13;2.40;;;;;;;;;;5072981;28;20044;-62
2023/06/16 10:52:17;;;;;;;3.70;2.83;;;;;;;;;;5073217;28;20048;-62
2023/06/16 10:54:48;;;;;;;4.53;2.88;;;;;;;;;;5072890;28;20044;-62
2023/06/16 10:57:15;;;;;;;3.15;2.38;;;;;;;;;;5072817;28;20057;-62
2023/06/16 10:59:53;;;;;;;2.70;2.45;;;;;;;;;;5072718;28;20044;-63
2023/06/16 11:02:21;;;;;;;3.20;2.20;;;;;;;;;;5072921;28;20131;-63
2023/06/16 11:05:09;;;;;;;4.72;2.53;;;;;;;;;;5072825;28;20044;-63
2023/06/16 11:07:55;;;;;;;3.15;2.63;;;;;;;;;;5072668;28;20159;-63
2023/06/16 11:10:23;;;;;;;2.50;2.28;;;;;;;;;;5072893;28;20751;-63
2023/06/16 11:12:50;;;;;;;4.47;2.40;;;;;;;;;;5072500;28;20094;-63
2023/06/16 11:15:18;;;;;;;4.38;2.38;;;;;;;;;;5072484;28;20052;-63
2023/06/16 11:17:47;;;;;;;2.35;1.92;;;;;;;;;;5072489;28;20056;-63
2023/06/16 11:20:15;;;;;;;3.60;2.10;;;;;;;;;;5071841;28;20587;-63
2023/06/16 11:22:44;;;;;;;3.42;2.22;;;;;;;;;;5072318;28;20510;-63
2023/06/16 11:25:12;;;;;;;2.28;2.10;;;;;;;;;;5072333;28;20492;-63
2023/06/16 11:27:39;;;;;;;2.92;2.15;;;;;;;;;;5072557;28;20134;-63
2023/06/16 11:30:07;;;;;;;3.83;2.00;;;;;;;;;;5072252;28;20056;-63
2023/06/16 11:32:37;;;;;;;2.95;2.15;;;;;;;;;;5072132;28;20040;-63
2023/06/16 11:35:04;;;;;;;4.38;2.45;;;;;;;;;;5072534;28;20063;-63
2023/06/16 11:37:51;;;;;;;3.58;1.98;;;;;;;;;;5071980;28;20563;-63
2023/06/16 11:40:18;;;;;;;2.50;2.25;;;;;;;;;;5072147;28;20069;-63
2023/06/16 11:43:12;;;;;;;2.42;1.90;;;;;;;;;;5072213;28;20048;-63
2023/06/16 11:45:39;;;;;;;2.17;1.95;;;;;;;;;;5067417;28;20122;-63
2023/06/16 11:48:06;;;;;;;2.00;1.85;;;;;;;;;;5071947;28;20052;-62
2023/06/16 11:50:33;;;;;;;2.95;2.10;;;;;;;;;;5072179;28;20431;-63
2023/06/16 11:53:00;;;;;;;3.88;2.20;;;;;;;;;;5071865;28;20454;-62
2023/06/16 11:55:27;;;;;;;2.65;2.30;;;;;;;;;;5072100;28;20049;-62
2023/06/16 11:57:57;;;;;;;4.82;2.03;;;;;;;;;;5071676;28;20072;-63
2023/06/16 12:00:26;;;;;;;3.15;2.20;;;;;;;;;;5071961;28;20071;-63
2023/06/16 12:02:53;;;;;;;3.15;2.20;;;;;;;;;;5071955;28;20076;-62
2023/06/16 12:05:30;;;;;;;3.38;2.30;;;;;;;;;;5071568;28;20431;-63
2023/06/16 12:07:57;;;;;;;2.30;2.10;;;;;;;;;;5071561;28;20052;-62
2023/06/16 12:10:24;;;;;;;3.22;2.10;;;;;;;;;;5071527;28;20052;-63
2023/06/16 12:12:51;;;;;;;2.17;1.90;;;;;;;;;;5071828;28;20127;-63
2023/06/16 12:15:19;;;;;;;2.13;1.95;;;;;;;;;;5071505;28;20496;-63
2023/06/16 12:17:47;;;;;;;2.85;1.98;;;;;;;;;;5071546;28;20151;-62
2023/06/16 12:20:15;;;;;;;3.05;1.88;;;;;;;;;;5071744;28;20060;-63
2023/06/16 12:22:42;;;;;;;2.28;2.00;;;;;;;;;;5071489;28;20084;-62
2023/06/16 12:25:13;;;;;;;2.50;2.03;;;;;;;;;;5071381;28;20063;-63
2023/06/16 12:27:44;;;;;;;1.88;1.77;;;;;;;;;;5071514;28;20500;-63
2023/06/16 12:30:12;;;;;;;3.97;2.00;;;;;;;;;;5071425;28;20544;-62
2023/06/16 12:32:39;;;;;;;4.38;1.77;;;;;;;;;;5072847;28;20053;-63
2023/06/16 12:35:06;;;;;;;3.42;1.60;;;;;;;;;;5075686;28;20135;-63
2023/06/16 12:37:32;;;;;;;3.97;1.75;;;;;;;;;;5075532;28;20052;-62
2023/06/16 12:40:03;;;;;;;1.98;1.77;;;;;;;;;;5075951;28;20045;-62
2023/06/16 12:42:30;;;;;;;2.58;1.90;;;;;;;;;;5075351;28;20052;-62
2023/06/16 12:45:02;;;;;;;3.25;2.00;;;;;;;;;;5075208;28;20051;-63
2023/06/16 12:47:29;;;;;;;2.35;1.90;;;;;;;;;;5075143;28;20053;-63
2023/06/16 12:49:57;;;;;;;2.40;2.20;;;;;;;;;;5074429;28;20500;-62
2023/06/16 12:52:24;;;;;;;2.63;2.28;;;;;;;;;;5075070;28;20048;-63
2023/06/16 12:54:52;;;;;;;4.90;2.17;;;;;;;;;;5075311;28;20063;-63
2023/06/16 12:57:19;;;;;;;3.63;2.17;;;;;;;;;;5075104;28;20064;-64
2023/06/16 12:59:45;;;;;;;2.58;1.83;;;;;;;;;;5075144;28;20048;-63
2023/06/16 13:02:12;;;;;;;2.25;1.92;;;;;;;;;;5075336;28;20067;-63
2023/06/16 13:04:38;;;;;;;3.60;1.80;;;;;;;;;;5075034;28;20045;-63
2023/06/16 13:07:06;;;;;;;4.00;1.83;;;;;;;;;;5074606;28;20051;-63
2023/06/16 13:09:32;;;;;;;1.90;1.80;;;;;;;;;;5074786;28;20052;-64
2023/06/16 13:12:00;;;;;;;2.05;1.63;;;;;;;;;;5061072;28;20052;-63
2023/06/16 13:14:27;;;;;;;1.73;1.48;;;;;;;;;;5054882;28;20056;-64
2023/06/16 13:16:54;;;;;;;2.53;1.70;;;;;;;;;;5054679;28;20420;-61
2023/06/16 13:19:21;;;;;;;1.55;1.45;;;;;;;;;;5068947;28;20059;-61
2023/06/16 13:21:47;;;;;;;2.10;1.80;;;;;;;;;;5073824;28;20415;-61
2023/06/16 13:24:13;;;;;;;1.70;1.60;;;;;;;;;;5072975;28;20381;-61
2023/06/16 13:26:40;;;;;;;2.25;1.40;;;;;;;;;;5073798;28;20048;-61
2023/06/16 13:29:07;;;;;;;3.97;1.33;;;;;;;;;;5073357;28;20056;-61
2023/06/16 13:31:33;;;;;;;2.45;1.30;;;;;;;;;;5072659;28;20053;-61
2023/06/16 13:34:00;;;;;;;2.45;1.45;;;;;;;;;;5073387;28;20484;-61
2023/06/16 13:36:26;;;;;;;1.98;1.50;;;;;;;;;;5072533;28;20134;-60
2023/06/16 13:38:52;;;;;;;3.17;1.65;;;;;;;;;;5073259;28;20059;-62
2023/06/16 13:41:20;;;;;;;2.33;1.75;;;;;;;;;;5072973;28;20063;-62
2023/06/16 13:43:48;;;;;;;1.98;1.70;;;;;;;;;;5072962;28;20555;-62
2023/06/16 13:46:15;;;;;;;3.42;1.60;;;;;;;;;;5072856;28;20055;-62
2023/06/16 13:48:45;;;;;;;2.00;1.58;;;;;;;;;;5073240;28;20049;-63
2023/06/16 13:51:12;;;;;;;2.80;1.40;;;;;;;;;;5072819;28;20094;-63
2023/06/16 13:53:39;;;;;;;3.75;1.63;;;;;;;;;;5072004;28;20063;-62
2023/06/16 13:56:06;;;;;;;1.70;1.60;;;;;;;;;;5072753;28;20553;-62
2023/06/16 13:58:33;;;;;;;1.73;1.50;;;;;;;;;;5072593;28;20051;-63
2023/06/16 14:00:59;;;;;;;1.77;1.48;;;;;;;;;;5073047;28;20052;-62
2023/06/16 14:03:26;;;;;;;1.85;1.40;;;;;;;;;;5073072;28;20044;-62
2023/06/16 14:05:54;;;;;;;2.30;1.38;;;;;;;;;;5072717;28;20123;-63
2023/06/16 14:08:20;;;;;;;2.35;1.30;;;;;;;;;;5073514;28;20412;-63
2023/06/16 14:10:47;;;;;;;3.40;1.30;;;;;;;;;;5073804;28;20040;-62
2023/06/16 14:13:16;;;;;;;2.17;1.50;;;;;;;;;;5073068;28;20057;-62
2023/06/16 14:15:42;;;;;;;2.50;1.33;;;;;;;;;;5073930;28;20052;-62
2023/06/16 14:18:10;;;;;;;2.00;1.50;;;;;;;;;;5055992;28;20515;-62
2023/06/16 14:20:36;;;;;;;2.85;1.20;;;;;;;;;;5073691;28;20056;-61
2023/06/16 14:23:05;;;;;;;1.50;1.40;;;;;;;;;;5063860;28;20052;-62
2023/06/16 14:25:32;;;;;;;3.38;1.40;;;;;;;;;;5072287;28;20056;-61
2023/06/16 14:27:59;;;;;;;3.50;1.42;;;;;;;;;;5044879;28;20116;-62
2023/06/16 14:30:25;;;;;;;2.15;1.35;;;;;;;;;;5073039;28;20052;-62
2023/06/16 14:32:52;;;;;;;1.85;1.48;;;;;;;;;;5072460;28;20048;-61
2023/06/16 14:35:18;;;;;;;1.88;1.50;;;;;;;;;;5071816;28;20056;-62
2023/06/16 14:37:45;;;;;;;2.38;1.52;;;;;;;;;;5072571;28;20066;-61
2023/06/16 14:40:11;;;;;;;1.58;1.48;;;;;;;;;;5071829;28;20075;-62
2023/06/16 14:42:38;;;;;;;2.65;1.50;;;;;;;;;;5068180;28;20103;-63
2023/06/16 14:45:05;;;;;;;2.10;1.30;;;;;;;;;;5071305;28;20044;-61
2023/06/16 14:47:35;;;;;;;2.33;1.23;;;;;;;;;;5071275;28;20048;-62